Time;durP1;ratioP1;P1;durP2;ratioP2;P2;SDS_P1;SDS_P2;PMS_P1;PMS_P2;Temp;Humidity;BMP_temperature;BMP_pressure;BME280_temperature;BME280_humidity;BME280_pressure;Samples;Min_cycle;Max_cycle;Signal;HPM_P1;HPM_P2
2023/05/03 00:01:10;;;;;;;9.70;6.00;;;;;;;16.58;38.78;99895.89;105630;1257;75725;-70
2023/05/03 00:03:38;;;;;;;8.60;5.50;;;;;;;16.54;38.94;99895.92;105697;1254;68209;-73
2023/05/03 00:06:10;;;;;;;7.10;5.60;;;;;;;16.65;38.68;99899.13;105689;1254;74112;-71
2023/05/03 00:08:37;;;;;;;8.40;4.90;;;;;;;16.85;38.41;99900.00;105674;1259;61287;-72
2023/05/03 00:11:05;;;;;;;6.30;5.70;;;;;;;16.92;38.29;99894.89;105701;1253;61435;-72
2023/05/03 00:13:32;;;;;;;7.10;4.60;;;;;;;16.79;38.39;99888.81;105878;1258;75555;-72
2023/05/03 00:15:59;;;;;;;9.60;4.80;;;;;;;13.23;43.72;99876.98;105658;1258;66613;-73
2023/05/03 00:18:26;;;;;;;6.50;5.10;;;;;;;12.35;46.45;99871.35;105507;1253;73580;-71
2023/05/03 00:20:54;;;;;;;11.30;4.90;;;;;;;11.97;48.92;99864.91;105769;1254;61204;-71
2023/05/03 00:23:20;;;;;;;11.30;4.90;;;;;;;11.90;49.69;99860.38;105713;1254;61333;-71
2023/05/03 00:25:54;;;;;;;8.10;5.10;;;;;;;12.23;49.51;99862.10;105853;1257;75700;-72
2023/05/03 00:28:22;;;;;;;7.50;4.30;;;;;;;12.83;47.85;99864.00;105914;1258;69405;-71
2023/05/03 00:30:49;;;;;;;6.00;4.20;;;;;;;14.19;44.44;99868.38;105908;1257;73673;-71
2023/05/03 00:33:16;;;;;;;12.40;4.60;;;;;;;14.18;43.85;99864.31;105777;1254;61278;-73
2023/05/03 00:35:43;;;;;;;7.00;3.80;;;;;;;12.73;47.32;99856.10;105665;1254;61256;-72
2023/05/03 00:38:10;;;;;;;4.40;3.90;;;;;;;12.67;48.10;99852.63;105649;1257;74700;-74
2023/05/03 00:40:37;;;;;;;6.40;3.70;;;;;;;13.62;45.89;99857.79;105704;1255;69843;-74
2023/05/03 00:43:04;;;;;;;5.90;3.80;;;;;;;13.91;44.94;99859.46;105818;1257;73524;-73
2023/05/03 00:45:32;;;;;;;5.30;4.20;;;;;;;13.12;46.38;99852.02;105654;1254;62207;-72
2023/05/03 00:47:59;;;;;;;8.20;3.20;;;;;;;12.36;49.06;99844.40;105650;1253;61546;-72
2023/05/03 00:50:27;;;;;;;6.30;4.00;;;;;;;13.66;46.09;99849.29;105661;1257;73624;-72
2023/05/03 00:52:54;;;;;;;4.70;3.90;;;;;;;14.50;44.13;99851.74;105667;1257;69027;-71
2023/05/03 00:55:21;;;;;;;6.10;4.10;;;;;;;14.92;43.01;99847.62;105680;1257;73618;-75
2023/05/03 00:57:48;;;;;;;10.70;4.30;;;;;;;13.43;45.28;99848.08;105302;1254;1003003;-73
2023/05/03 01:00:16;;;;;;;6.80;4.90;;;;;;;12.79;47.82;99850.33;105637;1255;61293;-73
2023/05/03 01:02:44;;;;;;;;;;;;;;;12.78;48.00;99843.70;105694;1258;74694;-71
2023/05/03 01:05:11;;;;;;;8.40;5.00;;;;;;;12.66;48.64;99845.62;105680;1254;68894;-71
2023/05/03 01:08:05;;;;;;;5.30;4.30;;;;;;;13.00;48.24;99845.59;105671;1260;73181;-71
2023/05/03 01:10:38;;;;;;;4.40;4.00;;;;;;;12.34;49.54;99835.33;105175;1261;61410;-70
2023/05/03 01:13:10;;;;;;;6.40;4.30;;;;;;;12.22;50.86;99840.31;105066;1265;61242;-74
2023/05/03 01:15:45;;;;;;;6.60;4.10;;;;;;;12.37;50.63;99839.03;105117;1269;75132;-72
2023/05/03 01:18:17;;;;;;;10.50;4.30;;;;;;;12.37;50.57;99834.61;105338;1265;68843;-72
2023/05/03 01:20:47;;;;;;;5.80;4.30;;;;;;;12.37;50.93;99837.02;105115;1261;73203;-71
2023/05/03 01:23:17;;;;;;;5.20;4.50;;;;;;;13.28;48.15;99840.96;105138;1260;61460;-74
2023/05/03 01:25:44;;;;;;;6.10;4.70;;;;;;;13.95;46.25;99836.46;106139;1261;61118;-72
2023/05/03 01:28:11;;;;;;;6.20;4.20;;;;;;;14.13;45.45;99836.09;107172;1260;74342;-73
2023/05/03 01:30:38;;;;;;;4.80;4.30;;;;;;;13.87;46.06;99833.34;105655;1260;69787;-74
2023/05/03 01:33:24;;;;;;;9.70;5.00;;;;;;;14.11;45.65;99832.98;105175;1264;72051;-72
2023/05/03 01:36:16;;;;;;;7.20;5.10;;;;;;;14.17;45.33;99832.98;105088;1261;61325;-71
2023/05/03 01:38:43;;;;;;;6.40;4.70;;;;;;;14.14;45.45;99832.34;105212;1260;61415;-74
2023/05/03 01:41:11;;;;;;;6.80;4.30;;;;;;;14.23;45.18;99831.63;105261;1266;75669;-71
2023/05/03 01:43:38;;;;;;;4.50;4.10;;;;;;;14.36;44.93;99826.91;105104;1261;69050;-70
2023/05/03 01:46:05;;;;;;;11.30;3.60;;;;;;;14.43;44.85;99820.70;105240;1261;72127;-72
2023/05/03 01:48:32;;;;;;;5.10;3.00;;;;;;;12.83;48.44;99811.32;105417;1256;61501;-75
2023/05/03 01:50:59;;;;;;;6.30;3.10;;;;;;;12.04;52.21;99804.42;105610;1254;61393;-70
2023/05/03 01:53:26;;;;;;;3.30;2.80;;;;;;;12.02;53.10;99804.42;105533;1257;75622;-71
2023/05/03 01:55:53;;;;;;;4.00;3.00;;;;;;;12.53;51.97;99803.90;105585;1260;68857;-72
2023/05/03 01:58:19;;;;;;;3.20;3.00;;;;;;;12.41;51.62;99808.39;105523;1259;72808;-71
2023/05/03 02:00:47;;;;;;;3.10;2.80;;;;;;;11.97;54.01;99801.48;105553;1254;61484;-74
2023/05/03 02:03:14;;;;;;;5.00;2.90;;;;;;;11.85;54.93;99807.17;105902;1254;61439;-74
2023/05/03 02:05:41;;;;;;;3.10;2.80;;;;;;;11.81;55.65;99809.91;105711;1259;74439;-72
2023/05/03 02:08:08;;;;;;;7.30;3.60;;;;;;;12.53;53.13;99808.85;105695;1253;68679;-73
2023/05/03 02:10:35;;;;;;;3.70;3.20;;;;;;;13.31;49.84;99813.75;105634;1254;73074;-74
2023/05/03 02:13:02;;;;;;;4.20;3.00;;;;;;;13.20;49.87;99814.05;105625;1253;62780;-72
2023/05/03 02:15:29;;;;;;;7.30;3.20;;;;;;;12.10;54.36;99806.46;105848;1254;61304;-71
2023/05/03 02:17:57;;;;;;;4.40;3.10;;;;;;;12.04;55.04;99806.48;105806;1254;74804;-73
2023/05/03 02:20:24;;;;;;;8.20;3.40;;;;;;;11.76;57.08;99805.57;105660;1257;67333;-74
2023/05/03 02:22:51;;;;;;;3.80;2.60;;;;;;;12.15;55.79;99812.73;106140;1257;73536;-74
2023/05/03 02:25:18;;;;;;;3.70;2.80;;;;;;;13.07;51.54;99815.36;105846;1257;61359;-76
2023/05/03 02:27:45;;;;;;;8.20;3.50;;;;;;;13.57;49.56;99815.23;105847;1254;61247;-73
2023/05/03 02:30:12;;;;;;;4.10;2.90;;;;;;;13.76;48.71;99816.98;105655;1257;74654;-76
2023/05/03 02:32:40;;;;;;;6.10;2.80;;;;;;;14.37;46.96;99820.91;105692;1257;68769;-73
2023/05/03 02:35:08;;;;;;;4.00;3.20;;;;;;;13.85;48.00;99812.55;105677;1257;72669;-72
2023/05/03 02:37:35;;;;;;;3.50;3.20;;;;;;;12.20;54.42;99809.39;105659;1253;61314;-74
2023/05/03 02:40:04;;;;;;;3.00;2.80;;;;;;;12.09;55.75;99803.60;105626;1254;61257;-73
2023/05/03 02:42:32;;;;;;;4.80;3.90;;;;;;;12.94;52.25;99806.81;105854;1253;74609;-70
2023/05/03 02:44:59;;;;;;;7.60;3.50;;;;;;;13.32;50.71;99810.42;105848;1253;69211;-72
2023/05/03 02:47:26;;;;;;;5.30;3.20;;;;;;;13.58;49.84;99806.06;105669;1254;72265;-73
2023/05/03 02:49:54;;;;;;;5.80;3.80;;;;;;;13.86;48.89;99809.34;105560;1254;61240;-72
2023/05/03 02:52:22;;;;;;;5.60;3.00;;;;;;;14.28;47.73;99802.23;105791;1259;61243;-72
2023/05/03 02:54:49;;;;;;;3.60;3.30;;;;;;;14.28;47.48;99801.88;105618;1260;74839;-72
2023/05/03 02:57:16;;;;;;;4.10;3.20;;;;;;;13.85;48.52;99801.02;105573;1254;68990;-72
2023/05/03 02:59:43;;;;;;;8.50;4.00;;;;;;;13.87;48.81;99803.07;105802;1258;72950;-75
2023/05/03 03:02:10;;;;;;;10.30;3.90;;;;;;;13.89;48.84;99799.23;105747;1254;61311;-73
2023/05/03 03:04:37;;;;;;;7.50;4.20;;;;;;;13.48;50.10;99795.58;105702;1254;61320;-72
2023/05/03 03:07:04;;;;;;;6.60;3.40;;;;;;;11.85;58.22;99791.98;105626;1260;75266;-72
2023/05/03 03:09:32;;;;;;;5.20;3.70;;;;;;;12.48;55.60;99798.86;105691;1254;69840;-72
2023/05/03 03:12:04;;;;;;;4.70;3.20;;;;;;;12.22;56.92;99801.33;105584;1254;72724;-74
2023/05/03 03:14:32;;;;;;;11.10;3.40;;;;;;;12.12;58.23;99802.11;105825;1254;61261;-74
2023/05/03 03:17:00;;;;;;;4.90;3.30;;;;;;;12.50;56.03;99810.18;105840;1254;61352;-74
2023/05/03 03:19:27;;;;;;;8.30;3.70;;;;;;;11.97;59.02;99812.89;105644;1258;74664;-73
2023/05/03 03:21:53;;;;;;;9.60;4.10;;;;;;;11.56;62.53;99815.31;105679;1253;68876;-71
2023/05/03 03:24:21;;;;;;;8.20;4.00;;;;;;;11.57;63.22;99806.94;105833;1255;72621;-75
2023/05/03 03:26:49;;;;;;;7.10;3.50;;;;;;;11.53;63.47;99811.96;105752;1253;62303;-71
2023/05/03 03:29:16;;;;;;;11.30;4.30;;;;;;;12.11;60.11;99816.89;105760;1254;61241;-73
2023/05/03 03:31:43;;;;;;;9.80;4.00;;;;;;;11.89;61.73;99817.73;105852;1256;75472;-72
2023/05/03 03:34:12;;;;;;;7.60;3.50;;;;;;;12.70;57.41;99827.38;106009;1256;69693;-71
2023/05/03 03:36:39;;;;;;;6.00;3.60;;;;;;;12.79;56.24;99828.23;105703;1253;71273;-75
2023/05/03 03:39:06;;;;;;;7.00;3.10;;;;;;;13.06;54.86;99827.02;106058;1254;62254;-73
2023/05/03 03:41:34;;;;;;;14.60;3.30;;;;;;;13.41;53.12;99833.26;105924;1252;61379;-73
2023/05/03 03:44:01;;;;;;;8.60;3.10;;;;;;;12.72;55.95;99838.45;105749;1260;75077;-76
2023/05/03 03:46:29;;;;;;;7.70;3.80;;;;;;;12.39;58.36;99838.18;105840;1254;69620;-72
2023/05/03 03:48:56;;;;;;;9.70;4.00;;;;;;;12.65;57.27;99837.90;105903;1254;72886;-71
2023/05/03 03:51:24;;;;;;;9.90;4.20;;;;;;;13.28;54.44;99839.30;105638;1254;61434;-73
2023/05/03 03:53:51;;;;;;;8.90;3.70;;;;;;;13.52;53.34;99845.54;105930;1254;61457;-73
2023/05/03 03:56:20;;;;;;;16.50;5.30;;;;;;;13.94;51.59;99843.23;106082;1256;74083;-73
2023/05/03 03:58:48;;;;;;;9.00;3.70;;;;;;;13.64;52.02;99843.95;106098;1252;69183;-75
2023/05/03 04:01:15;;;;;;;14.10;4.60;;;;;;;13.92;51.51;99843.27;106085;1254;73033;-75
2023/05/03 04:03:48;;;;;;;10.30;4.90;;;;;;;14.46;49.67;99848.20;105961;1253;61260;-75
2023/05/03 04:06:15;;;;;;;6.10;4.70;;;;;;;15.03;48.27;99851.70;105747;1253;61282;-72
2023/05/03 04:08:42;;;;;;;7.20;3.60;;;;;;;15.17;47.44;99856.30;105868;1253;72273;-72
2023/05/03 04:11:13;;;;;;;9.40;4.80;;;;;;;15.32;46.90;99851.20;106008;1256;68996;-74
2023/05/03 04:13:46;;;;;;;15.30;4.80;;;;;;;15.36;46.40;99851.24;105820;1253;73084;-72
2023/05/03 04:16:12;;;;;;;16.20;5.10;;;;;;;15.32;46.56;99856.71;105801;1253;62442;-73
2023/05/03 04:18:40;;;;;;;6.40;4.20;;;;;;;15.57;46.01;99850.75;105717;1253;61463;-73
2023/05/03 04:21:07;;;;;;;17.80;4.60;;;;;;;14.52;48.62;99849.99;105810;1260;73953;-73
2023/05/03 04:23:35;;;;;;;6.00;3.40;;;;;;;14.11;50.59;99839.50;105966;1254;68967;-76
2023/05/03 04:26:03;;;;;;;8.50;3.10;;;;;;;14.79;48.54;99844.88;106145;1256;73014;-73
2023/05/03 04:28:32;;;;;;;4.30;2.80;;;;;;;15.33;47.28;99845.90;105679;1253;61285;-74
2023/05/03 04:30:59;;;;;;;3.40;2.80;;;;;;;15.48;46.49;99839.88;106514;1253;61363;-73
2023/05/03 04:33:28;;;;;;;5.00;3.10;;;;;;;15.09;47.19;99844.63;107747;1253;74033;-75
2023/05/03 04:35:58;;;;;;;6.30;3.60;;;;;;;15.57;46.88;99838.84;106470;1253;68715;-74
2023/05/03 04:38:25;;;;;;;13.80;3.30;;;;;;;15.76;45.60;99837.16;105849;1257;70793;-78
2023/05/03 04:40:53;;;;;;;4.20;3.10;;;;;;;16.33;44.81;99844.05;105833;1253;61211;-74
2023/05/03 04:43:20;;;;;;;8.30;2.60;;;;;;;16.86;43.22;99841.86;105863;1257;61311;-75
2023/05/03 04:45:48;;;;;;;7.30;3.60;;;;;;;16.96;42.66;99837.15;106074;1254;74235;-74
2023/05/03 04:48:18;;;;;;;5.00;3.10;;;;;;;17.21;42.13;99846.73;106048;1254;69246;-73
2023/05/03 04:50:45;;;;;;;9.10;3.10;;;;;;;17.38;41.51;99849.21;105831;1254;73448;-72
2023/05/03 04:53:14;;;;;;;7.80;3.10;;;;;;;17.62;41.06;99854.96;106116;1254;61336;-72
2023/05/03 04:55:42;;;;;;;5.50;2.90;;;;;;;17.84;40.17;99857.42;105943;1254;61203;-74
2023/05/03 04:58:10;;;;;;;6.20;2.80;;;;;;;17.86;39.73;99864.62;106152;1256;75439;-74
2023/05/03 05:00:37;;;;;;;9.40;2.60;;;;;;;17.90;39.35;99858.81;105869;1254;69112;-74
2023/05/03 05:03:08;;;;;;;7.00;2.70;;;;;;;18.47;38.62;99868.48;105881;1254;71268;-76
2023/05/03 05:05:35;;;;;;;6.80;2.50;;;;;;;19.10;37.43;99871.84;105660;1253;61314;-76
2023/05/03 05:08:03;;;;;;;6.30;2.90;;;;;;;18.84;37.02;99870.51;106077;1253;61676;-73
2023/05/03 05:10:40;;;;;;;3.20;2.40;;;;;;;18.86;36.94;99861.60;105868;1258;75383;-80
2023/05/03 05:13:07;;;;;;;20.60;3.20;;;;;;;18.50;37.14;99857.34;105788;1255;69652;-77
2023/05/03 05:15:34;;;;;;;3.90;1.70;;;;;;;18.82;37.02;99866.58;105770;1256;72656;-76
2023/05/03 05:18:01;;;;;;;7.70;3.30;;;;;;;18.90;36.74;99861.20;105743;1254;61241;-75
2023/05/03 05:20:28;;;;;;;7.10;3.00;;;;;;;18.69;36.73;99866.29;105691;1253;61659;-73
2023/05/03 05:22:56;;;;;;;5.20;3.00;;;;;;;19.20;36.42;99864.75;105731;1260;75573;-73
2023/05/03 05:25:23;;;;;;;4.00;2.60;;;;;;;19.54;35.81;99871.51;105710;1260;68632;-74
2023/05/03 05:27:50;;;;;;;5.60;2.60;;;;;;;19.56;35.62;99868.91;105631;1258;72729;-77
2023/05/03 05:30:18;;;;;;;3.40;2.50;;;;;;;19.17;36.01;99866.13;105746;1256;61255;-81
2023/05/03 05:32:45;;;;;;;5.20;2.70;;;;;;;18.44;36.94;99868.27;105681;1257;61436;-73
2023/05/03 05:35:15;;;;;;;5.50;2.80;;;;;;;18.42;37.07;99869.13;105791;1260;75709;-75
2023/05/03 05:37:42;;;;;;;10.20;3.00;;;;;;;18.13;37.18;99855.20;105757;1257;69289;-74
2023/05/03 05:40:09;;;;;;;8.30;2.90;;;;;;;18.32;37.26;99869.18;105739;1256;71731;-73
2023/05/03 05:42:41;;;;;;;5.20;3.00;;;;;;;18.43;37.33;99867.19;105641;1257;61350;-72
2023/05/03 05:45:09;;;;;;;5.80;2.70;;;;;;;18.53;37.20;99865.56;105648;1256;61427;-76
2023/05/03 05:47:36;;;;;;;7.30;2.60;;;;;;;18.50;37.40;99868.77;105748;1260;74730;-73
2023/05/03 05:50:04;;;;;;;8.00;3.20;;;;;;;18.40;37.67;99869.27;105726;1260;68009;-73
2023/05/03 05:52:45;;;;;;;4.70;2.70;;;;;;;18.76;37.30;99873.60;105316;1256;73322;-72
2023/05/03 05:55:14;;;;;;;12.70;3.40;;;;;;;18.60;37.38;99870.56;105823;1253;61329;-77
2023/05/03 05:57:42;;;;;;;3.50;2.30;;;;;;;18.72;37.19;99876.10;105712;1253;62212;-73
2023/05/03 06:00:13;;;;;;;11.10;4.80;;;;;;;18.54;37.17;99870.65;105925;1257;74873;-73
2023/05/03 06:02:40;;;;;;;3.30;2.30;;;;;;;18.33;37.23;99863.29;106065;1254;69705;-73
2023/05/03 06:05:11;;;;;;;19.50;9.50;;;;;;;18.52;37.49;99867.86;106157;1256;70802;-72
2023/05/03 06:07:39;;;;;;;21.40;10.90;;;;;;;18.84;37.36;99875.86;105962;1253;61307;-73
2023/05/03 06:10:06;;;;;;;9.90;7.30;;;;;;;18.51;37.90;99872.61;105886;1254;61361;-73
2023/05/03 06:12:35;;;;;;;;;;;;;;;18.46;37.88;99878.23;105872;1259;74500;-72
2023/05/03 06:15:04;;;;;;;10.80;3.20;;;;;;;18.96;37.76;99879.96;105970;1253;68641;-72
2023/05/03 06:17:36;;;;;;;12.90;3.70;;;;;;;18.98;37.64;99884.17;105698;1254;73672;-72
2023/05/03 06:20:03;;;;;;;8.30;3.30;;;;;;;19.42;36.86;99884.77;105697;1258;61234;-77
2023/05/03 06:22:32;;;;;;;5.70;2.70;;;;;;;19.35;36.72;99884.89;106024;1252;60578;-73
2023/05/03 06:24:59;;;;;;;6.20;3.00;;;;;;;19.67;36.44;99880.96;105945;1252;75113;-76
2023/05/03 06:27:26;;;;;;;8.80;2.80;;;;;;;19.61;36.32;99884.46;106147;1256;68384;-75
2023/05/03 06:29:54;;;;;;;6.40;2.60;;;;;;;19.69;36.27;99880.69;106017;1252;73585;-77
2023/05/03 06:32:22;;;;;;;7.50;2.80;;;;;;;20.00;35.86;99872.55;106071;1253;61195;-77
2023/05/03 06:34:49;;;;;;;3.50;2.20;;;;;;;19.83;36.15;99876.69;105786;1254;61287;-74
2023/05/03 06:37:17;;;;;;;9.10;3.10;;;;;;;19.94;35.58;99884.99;105729;1254;75625;-74
2023/05/03 06:39:44;;;;;;;6.30;2.20;;;;;;;20.18;35.85;99886.88;105978;1254;69811;-72
2023/05/03 06:42:11;;;;;;;8.90;3.20;;;;;;;20.05;35.27;99883.92;105897;1254;72669;-78
2023/05/03 06:44:39;;;;;;;5.40;2.10;;;;;;;19.89;35.65;99890.95;106146;1252;61333;-73
2023/05/03 06:47:06;;;;;;;6.60;3.30;;;;;;;20.14;35.38;99891.89;106141;1254;62365;-76
2023/05/03 06:49:34;;;;;;;24.70;8.80;;;;;;;20.45;35.02;99896.10;105826;1260;74506;-76
2023/05/03 06:52:00;;;;;;;5.60;2.30;;;;;;;20.61;34.85;99897.60;106095;1254;69963;-75
2023/05/03 06:54:28;;;;;;;7.90;2.60;;;;;;;20.66;34.54;99896.03;106104;1254;72745;-75
2023/05/03 06:56:55;;;;;;;6.60;2.40;;;;;;;21.19;34.24;99896.80;105971;1253;62415;-74
2023/05/03 06:59:22;;;;;;;4.40;2.60;;;;;;;21.31;34.05;99898.69;105829;1253;61366;-72
2023/05/03 07:01:49;;;;;;;10.30;5.40;;;;;;;21.72;33.92;99906.29;105680;1254;74448;-75
2023/05/03 07:04:16;;;;;;;6.50;3.20;;;;;;;21.48;33.93;99908.75;105850;1253;69683;-75
2023/05/03 07:06:43;;;;;;;13.40;5.00;;;;;;;21.39;34.09;99913.21;105808;1261;73187;-74
2023/05/03 07:09:22;;;;;;;4.20;2.70;;;;;;;21.51;34.05;99904.95;105767;1253;61462;-74
2023/05/03 07:12:08;;;;;;;5.40;2.40;;;;;;;21.06;34.96;99909.16;105912;1257;61227;-72
2023/05/03 07:14:35;;;;;;;3.90;2.40;;;;;;;20.80;34.81;99908.98;105708;1257;74453;-73
2023/05/03 07:17:02;;;;;;;6.10;3.20;;;;;;;21.34;34.46;99907.23;105886;1257;69827;-75
2023/05/03 07:19:29;;;;;;;5.50;2.50;;;;;;;21.26;34.20;99907.09;105876;1258;73534;-76
2023/05/03 07:21:56;;;;;;;4.60;2.80;;;;;;;20.95;35.16;99906.98;106044;1254;61307;-72
2023/05/03 07:24:24;;;;;;;5.40;2.60;;;;;;;22.00;33.95;99910.58;106084;1253;61332;-75
2023/05/03 07:26:52;;;;;;;4.90;2.80;;;;;;;22.00;33.38;99916.48;106106;1253;74603;-74
2023/05/03 07:29:19;;;;;;;8.40;2.70;;;;;;;21.80;33.53;99908.64;105921;1253;69142;-75
2023/05/03 07:31:46;;;;;;;5.60;2.60;;;;;;;21.96;33.88;99909.90;105915;1254;73120;-76
2023/05/03 07:34:13;;;;;;;3.00;2.00;;;;;;;22.13;33.72;99908.65;106074;1254;61276;-74
2023/05/03 07:36:40;;;;;;;3.60;2.80;;;;;;;22.30;33.12;99906.48;105977;1252;61263;-75
2023/05/03 07:39:07;;;;;;;2.90;2.50;;;;;;;22.35;33.50;99914.24;107442;1254;74647;-74
2023/05/03 07:41:35;;;;;;;9.20;2.20;;;;;;;22.39;33.01;99914.54;108401;1253;67721;-74
2023/05/03 07:44:03;;;;;;;4.80;2.80;;;;;;;22.56;33.06;99912.29;106397;1255;71972;-80
2023/05/03 07:46:34;;;;;;;10.10;2.90;;;;;;;23.24;32.42;99919.58;105880;1257;61275;-75
2023/05/03 07:49:01;;;;;;;8.00;2.60;;;;;;;23.06;32.50;99918.84;105810;1253;61306;-76
2023/05/03 07:51:28;;;;;;;4.70;2.40;;;;;;;23.05;32.41;99919.55;105705;1253;74615;-75
2023/05/03 07:53:55;;;;;;;10.80;4.00;;;;;;;22.95;32.82;99917.75;105861;1253;69479;-74
2023/05/03 07:56:22;;;;;;;6.20;3.20;;;;;;;22.91;33.04;99918.53;105993;1254;73569;-72
2023/05/03 07:58:49;;;;;;;5.60;2.60;;;;;;;23.99;31.66;99921.70;106064;1254;61332;-72
2023/05/03 08:01:31;;;;;;;3.30;2.20;;;;;;;23.97;31.61;99924.59;106157;1253;61288;-72
2023/05/03 08:03:58;;;;;;;4.70;3.10;;;;;;;24.42;31.35;99925.56;105757;1253;73418;-75
2023/05/03 08:06:26;;;;;;;10.10;2.60;;;;;;;24.61;31.17;99931.67;105813;1253;69650;-73
2023/05/03 08:08:54;;;;;;;5.90;2.60;;;;;;;24.09;31.14;99929.04;105755;1253;73568;-75
2023/05/03 08:11:21;;;;;;;3.20;2.30;;;;;;;23.34;32.40;99934.71;106000;1257;61930;-74
2023/05/03 08:13:47;;;;;;;204.70;117.90;;;;;;;23.17;32.33;99934.34;106056;1253;61815;-73
2023/05/03 08:16:15;;;;;;;14.70;9.30;;;;;;;23.77;32.17;99929.11;105853;1256;74471;-76
2023/05/03 08:18:42;;;;;;;5.60;3.20;;;;;;;23.70;31.81;99931.10;106098;1256;68873;-74
2023/05/03 08:21:11;;;;;;;10.10;3.20;;;;;;;23.00;32.50;99941.43;106097;1258;72860;-73
2023/05/03 08:23:38;;;;;;;6.50;2.80;;;;;;;23.20;32.45;99940.55;105880;1253;61315;-73
2023/05/03 08:26:08;;;;;;;4.40;2.90;;;;;;;22.79;33.07;99936.47;105880;1257;61222;-74
2023/05/03 08:28:36;;;;;;;8.60;3.70;;;;;;;23.45;33.01;99932.46;106077;1253;74471;-74
2023/05/03 08:31:03;;;;;;;5.20;3.20;;;;;;;23.86;32.29;99935.33;106293;1255;68554;-77
2023/05/03 08:33:30;;;;;;;9.00;3.90;;;;;;;23.45;32.25;99934.87;106108;1253;72491;-76
2023/05/03 08:35:57;;;;;;;3.10;2.60;;;;;;;23.28;32.13;99930.83;106008;1256;61296;-74
2023/05/03 08:38:25;;;;;;;9.70;3.00;;;;;;;24.04;31.82;99932.62;105907;1253;61224;-75
2023/05/03 08:40:52;;;;;;;5.60;2.60;;;;;;;24.31;31.71;99930.96;106124;1257;75573;-74
2023/05/03 08:43:20;;;;;;;7.70;2.80;;;;;;;23.63;31.89;99934.50;105791;1254;69355;-73
2023/05/03 08:45:47;;;;;;;11.50;3.10;;;;;;;24.30;31.48;99938.05;106099;1255;72778;-74
2023/05/03 08:48:14;;;;;;;8.40;5.50;;;;;;;24.93;31.08;99943.17;105895;1257;61333;-74
2023/05/03 08:50:41;;;;;;;5.50;3.30;;;;;;;25.17;30.27;99939.61;105835;1253;61337;-74
2023/05/03 08:53:09;;;;;;;12.40;3.60;;;;;;;25.22;30.46;99942.12;105840;1259;75140;-73
2023/05/03 08:55:36;;;;;;;;;;;;;;;25.01;30.81;99931.53;105899;1257;67978;-75
2023/05/03 08:58:09;;;;;;;6.00;2.70;;;;;;;24.65;31.30;99932.73;105860;1253;73916;-73
2023/05/03 09:00:37;;;;;;;8.20;3.00;;;;;;;25.39;30.53;99937.18;105845;1253;61302;-73
2023/05/03 09:03:04;;;;;;;;;;;;;;;25.12;30.53;99939.27;106027;1253;142826;-76
2023/05/03 09:05:35;;;;;;;12.80;2.60;;;;;;;25.32;30.25;99941.81;106051;1256;74818;-72
2023/05/03 09:08:04;;;;;;;5.30;2.90;;;;;;;25.20;29.83;99944.58;105609;1253;66865;-73
2023/05/03 09:10:32;;;;;;;6.40;2.80;;;;;;;25.34;29.89;99937.11;105964;1253;73625;-75
2023/05/03 09:13:01;;;;;;;13.90;2.80;;;;;;;24.87;30.22;99935.45;106087;1256;61202;-75
2023/05/03 09:15:29;;;;;;;5.80;2.80;;;;;;;24.69;30.76;99929.35;106052;1255;61151;-75
2023/05/03 09:18:09;;;;;;;7.60;3.70;;;;;;;25.21;30.19;99929.60;106023;1253;75488;-71
2023/05/03 09:20:38;;;;;;;5.40;2.90;;;;;;;24.88;30.66;99933.77;105989;1253;66742;-76
2023/05/03 09:23:08;;;;;;;10.00;3.70;;;;;;;24.68;30.99;99935.89;106161;1256;72369;-74
2023/05/03 09:25:42;;;;;;;6.40;2.90;;;;;;;24.06;31.44;99933.56;106095;1254;61265;-73
2023/05/03 09:28:09;;;;;;;8.10;3.20;;;;;;;24.04;31.56;99933.42;106132;1256;61231;-75
2023/05/03 09:30:36;;;;;;;25.70;14.60;;;;;;;24.31;31.60;99934.67;106019;1254;73591;-75
2023/05/03 09:33:03;;;;;;;6.10;3.60;;;;;;;25.18;30.55;99938.85;105838;1253;69786;-76
2023/05/03 09:35:33;;;;;;;8.20;3.30;;;;;;;25.35;30.12;99941.61;106002;1254;73652;-73
2023/05/03 09:38:00;;;;;;;4.50;2.80;;;;;;;25.65;29.65;99943.95;105987;1253;61350;-75
2023/05/03 09:40:28;;;;;;;5.70;3.20;;;;;;;25.33;30.40;99937.09;105926;1253;61284;-75
2023/05/03 09:43:09;;;;;;;19.90;11.80;;;;;;;25.54;30.57;99941.66;106089;1256;74875;-73
2023/05/03 09:45:36;;;;;;;4.80;2.80;;;;;;;25.63;29.58;99942.16;106102;1254;69859;-73
2023/05/03 09:48:04;;;;;;;5.40;2.90;;;;;;;24.65;30.71;99940.94;106123;1254;72235;-75
2023/05/03 09:50:32;;;;;;;8.30;3.20;;;;;;;24.59;31.11;99937.98;106064;1254;61330;-73
2023/05/03 09:53:00;;;;;;;;;;;;;;;25.06;30.97;99941.88;106234;1257;61314;-73
2023/05/03 09:55:27;;;;;;;4.30;2.90;;;;;;;25.19;30.79;99934.83;105936;1256;75053;-73
2023/05/03 09:57:54;;;;;;;8.70;3.30;;;;;;;25.26;30.97;99934.79;106070;1254;68929;-76
2023/05/03 10:00:21;;;;;;;3.70;2.90;;;;;;;24.45;31.28;99934.33;106101;1256;73778;-75
2023/05/03 10:02:48;;;;;;;6.70;2.90;;;;;;;25.14;30.76;99938.18;106031;1256;61320;-77
2023/05/03 10:05:15;;;;;;;10.60;3.80;;;;;;;25.67;30.25;99941.27;106074;1253;61222;-74
2023/05/03 10:07:42;;;;;;;6.50;2.40;;;;;;;25.35;30.75;99942.61;105887;1259;75333;-76
2023/05/03 10:10:09;;;;;;;10.90;2.60;;;;;;;24.69;31.13;99941.17;105795;1254;69553;-75
2023/05/03 10:12:36;;;;;;;4.80;2.70;;;;;;;24.66;31.39;99938.80;106076;1255;72891;-75
2023/05/03 10:15:05;;;;;;;6.40;2.40;;;;;;;25.12;31.28;99945.16;105823;1254;61527;-75
2023/05/03 10:17:34;;;;;;;7.90;3.10;;;;;;;25.30;30.90;99952.19;105849;1258;61220;-75
2023/05/03 10:20:28;;;;;;;8.60;4.40;;;;;;;25.83;30.31;99949.62;105849;1253;73525;-75
2023/05/03 10:23:04;;;;;;;9.10;3.10;;;;;;;26.48;29.82;99951.98;105907;1258;68770;-74
2023/05/03 10:25:33;;;;;;;13.40;2.80;;;;;;;27.16;29.61;99953.64;105810;1255;72607;-74
2023/05/03 10:28:02;;;;;;;4.80;2.70;;;;;;;27.20;29.53;99952.10;105925;1253;62222;-75
2023/05/03 10:30:39;;;;;;;5.90;3.10;;;;;;;26.16;29.63;99943.67;105949;1261;61125;-76
2023/05/03 10:33:12;;;;;;;10.00;3.00;;;;;;;25.75;30.29;99951.10;106093;1252;75592;-76
2023/05/03 10:35:43;;;;;;;7.70;3.00;;;;;;;25.68;30.27;99952.64;106142;1254;68830;-72
2023/05/03 10:38:20;;;;;;;16.30;3.20;;;;;;;26.35;29.95;99948.95;105975;1253;73439;-74
2023/05/03 10:40:47;;;;;;;9.30;3.00;;;;;;;26.31;29.85;99952.30;105918;1253;61272;-75
2023/05/03 10:43:29;;;;;;;7.10;3.30;;;;;;;26.42;29.68;99954.73;106011;1253;61320;-76
2023/05/03 10:45:57;;;;;;;9.60;4.30;;;;;;;26.93;29.12;99959.35;105986;1257;75091;-74
2023/05/03 10:48:24;;;;;;;10.40;3.60;;;;;;;27.03;29.34;99956.23;106496;1253;68771;-75
2023/05/03 10:50:51;;;;;;;4.90;2.70;;;;;;;27.14;29.05;99950.91;108625;1253;72351;-75
2023/05/03 10:53:37;;;;;;;12.30;5.40;;;;;;;27.08;29.78;99950.30;107494;1253;61358;-77
2023/05/03 10:56:06;;;;;;;10.70;3.90;;;;;;;26.99;29.74;99956.42;106013;1258;61810;-75
2023/05/03 10:58:47;;;;;;;7.20;3.00;;;;;;;27.10;29.44;99953.48;105842;1258;75579;-77
2023/05/03 11:01:15;;;;;;;10.00;3.20;;;;;;;27.40;28.86;99956.22;105752;1254;69984;-80
2023/05/03 11:04:04;;;;;;;9.90;4.50;;;;;;;27.11;28.73;99954.79;106062;1253;72818;-77
2023/05/03 11:06:35;;;;;;;5.10;2.90;;;;;;;27.27;28.19;99955.97;106146;1254;61116;-74
2023/05/03 11:09:05;;;;;;;29.50;12.70;;;;;;;27.27;28.05;99944.33;106182;1256;61176;-77
2023/05/03 11:11:34;;;;;;;6.30;2.80;;;;;;;26.95;28.09;99947.14;106107;1256;74897;-74
2023/05/03 11:14:02;;;;;;;13.90;4.70;;;;;;;27.04;28.62;99947.83;106066;1254;69351;-73
2023/05/03 11:16:29;;;;;;;7.70;3.40;;;;;;;26.98;28.24;99947.91;105959;1254;73818;-73
2023/05/03 11:18:56;;;;;;;18.40;5.20;;;;;;;26.79;28.85;99945.45;106055;1252;61801;-77
2023/05/03 11:21:24;;;;;;;47.40;10.30;;;;;;;26.88;28.66;99951.58;105951;1253;61430;-76
2023/05/03 11:23:50;;;;;;;12.70;6.50;;;;;;;27.01;28.24;99943.27;105899;1253;75591;-76
2023/05/03 11:26:20;;;;;;;117.90;71.10;;;;;;;27.28;28.25;99947.70;105918;1253;69786;-76
2023/05/03 11:28:47;;;;;;;11.20;6.00;;;;;;;27.28;28.86;99946.29;105955;1257;71520;-77
2023/05/03 11:31:14;;;;;;;17.60;6.40;;;;;;;27.56;28.32;99944.30;106051;1254;61336;-78